createdAt,value
2017-12-02T00:00:10.192Z,61.72
2017-12-02T00:02:45.220Z,61.37
2017-12-02T00:05:15.211Z,60.60
2017-12-02T00:07:44.761Z,60.86
2017-12-02T00:10:14.349Z,63.73
2017-12-02T00:12:44.060Z,62.11
2017-12-02T00:15:14.695Z,64.18
2017-12-02T00:17:47.268Z,61.92
2017-12-02T00:20:23.195Z,60.94
2017-12-02T00:22:55.339Z,60.49
2017-12-02T00:25:25.063Z,60.11
2017-12-02T00:27:55.325Z,60.34
2017-12-02T00:30:24.776Z,60.29
2017-12-02T00:32:55.066Z,59.77
2017-12-02T00:35:25.599Z,60.12
2017-12-02T00:37:56.463Z,59.35
2017-12-02T00:40:27.099Z,60.48
2017-12-02T00:42:57.560Z,60.27
2017-12-02T00:45:27.225Z,61.12
2017-12-02T00:48:07.915Z,60.78
2017-12-02T00:50:38.535Z,60.26
2017-12-02T00:53:08.840Z,63.12
2017-12-02T00:55:38.888Z,60.86
2017-12-02T00:58:09.537Z,60.55
2017-12-02T01:00:41.388Z,60.87
2017-12-02T01:03:32.524Z,60.12
2017-12-02T01:06:02.799Z,60.43
2017-12-02T01:08:41.089Z,60.54
2017-12-02T01:13:53.789Z,59.72
2017-12-02T01:16:24.474Z,59.62
2017-12-02T01:19:04.314Z,59.43
2017-12-02T01:21:36.043Z,59.96
2017-12-02T01:24:15.346Z,59.46
2017-12-02T01:26:44.848Z,59.83
2017-12-02T01:29:14.513Z,58.75
2017-12-02T01:31:45.765Z,59.75
2017-12-02T01:34:16.444Z,59.92
2017-12-02T01:36:46.600Z,59.70
2017-12-02T01:39:16.231Z,59.30
2017-12-02T01:41:49.165Z,58.79
2017-12-02T01:47:08.572Z,62.13
2017-12-02T01:49:40.969Z,63.78
2017-12-02T01:52:22.900Z,60.85
2017-12-02T01:54:57.057Z,60.51
2017-12-02T01:57:45.418Z,59.76
2017-12-02T02:00:15.393Z,59.51
2017-12-02T02:02:47.454Z,60.32
2017-12-02T02:05:19.712Z,63.32
2017-12-02T02:07:50.241Z,63.45
2017-12-02T02:10:20.116Z,63.74
2017-12-02T02:12:57.430Z,62.58
2017-12-02T02:15:30.206Z,60.73
2017-12-02T02:18:02.883Z,60.59
2017-12-02T02:20:34.184Z,60.38
2017-12-02T02:23:11.165Z,59.94
2017-12-02T02:25:41.037Z,62.83
2017-12-02T02:28:10.764Z,61.88
2017-12-02T02:30:41.320Z,60.66
2017-12-02T02:33:10.767Z,60.67
2017-12-02T02:35:40.461Z,60.08
2017-12-02T02:38:10.208Z,59.89
2017-12-02T02:40:39.709Z,59.37
2017-12-02T02:43:10.569Z,59.26
2017-12-02T02:45:40.260Z,58.95
2017-12-02T02:48:10.709Z,59.49
2017-12-02T02:50:40.824Z,59.61
2017-12-02T02:53:14.096Z,58.98
2017-12-02T02:55:43.892Z,59.22
2017-12-02T02:58:13.584Z,59.84
2017-12-02T03:00:43.143Z,58.96
2017-12-02T03:03:12.810Z,59.49
2017-12-02T03:05:43.165Z,60.87
2017-12-02T03:08:13.856Z,63.10
2017-12-02T03:10:44.198Z,63.01
2017-12-02T03:13:24.390Z,63.15
2017-12-02T03:15:54.228Z,63.62
2017-12-02T03:18:25.123Z,62.49
2017-12-02T03:20:54.818Z,61.40
2017-12-02T03:23:29.154Z,60.61
2017-12-02T03:26:00.210Z,60.02
2017-12-02T03:28:30.188Z,59.60
2017-12-02T03:31:19.646Z,62.16
2017-12-02T03:36:47.321Z,60.13
2017-12-02T03:39:18.795Z,59.87
2017-12-02T03:41:49.324Z,59.44
2017-12-02T03:44:21.778Z,59.22
2017-12-02T03:46:52.734Z,62.32
2017-12-02T03:49:34.834Z,60.17
2017-12-02T03:52:10.510Z,60.56
2017-12-02T03:58:15.172Z,59.85
2017-12-02T04:01:01.238Z,59.57
2017-12-02T04:03:51.045Z,59.82
2017-12-02T04:09:42.012Z,59.08
2017-12-02T04:12:41.041Z,59.57
2017-12-02T04:21:21.285Z,58.42
2017-12-02T04:24:06.815Z,57.97
2017-12-02T04:39:29.342Z,59.27
2017-12-02T04:42:37.572Z,58.77
2017-12-02T04:50:42.489Z,60.19
2017-12-02T04:53:37.461Z,60.42
2017-12-02T04:59:29.154Z,59.00
2017-12-02T05:01:59.369Z,58.93
2017-12-02T05:04:34.839Z,59.16
2017-12-02T05:07:05.800Z,58.59
2017-12-02T05:12:14.848Z,59.53
2017-12-02T05:14:46.807Z,59.94
2017-12-02T05:17:16.955Z,60.07
2017-12-02T05:22:22.909Z,60.19
2017-12-02T05:24:53.918Z,59.10
2017-12-02T05:27:24.311Z,59.10
2017-12-02T05:29:53.921Z,58.75
2017-12-02T05:32:24.255Z,58.93
2017-12-02T05:34:54.914Z,58.04
2017-12-02T05:37:24.611Z,58.32
2017-12-02T05:39:58.330Z,58.45
2017-12-02T05:42:28.970Z,58.11
2017-12-02T05:45:01.142Z,58.50
2017-12-02T05:47:30.807Z,58.55
2017-12-02T05:50:00.288Z,58.28
2017-12-02T05:52:35.653Z,58.52
2017-12-02T05:55:06.007Z,58.00
2017-12-02T05:57:35.781Z,58.50
2017-12-02T06:00:05.623Z,58.37
2017-12-02T06:02:36.993Z,58.08
2017-12-02T06:05:06.623Z,57.47
2017-12-02T06:07:36.273Z,57.82
2017-12-02T06:10:06.814Z,58.14
2017-12-02T06:12:37.110Z,58.31
2017-12-02T06:15:07.301Z,59.76
2017-12-02T06:17:42.821Z,58.85
2017-12-02T06:20:13.031Z,58.00
2017-12-02T06:22:43.242Z,58.43
2017-12-02T06:25:12.977Z,57.79
2017-12-02T06:27:48.938Z,57.46
2017-12-02T06:30:19.045Z,58.02
2017-12-02T06:32:48.917Z,58.28
2017-12-02T06:35:19.876Z,61.41
2017-12-02T06:37:49.572Z,61.18
2017-12-02T06:40:21.272Z,59.43
2017-12-02T06:42:51.248Z,59.53
2017-12-02T06:45:21.305Z,58.88
2017-12-02T06:47:51.251Z,58.23
2017-12-02T06:50:22.333Z,57.97
2017-12-02T06:52:52.795Z,58.14
2017-12-02T06:55:24.696Z,58.33
2017-12-02T06:57:54.488Z,58.28
2017-12-02T07:00:25.000Z,58.66
2017-12-02T07:02:55.588Z,58.64
2017-12-02T07:05:25.223Z,58.25
2017-12-02T07:07:55.286Z,58.33
2017-12-02T07:10:24.995Z,58.41
2017-12-02T07:12:54.821Z,58.66
2017-12-02T07:15:25.541Z,59.28
2017-12-02T07:17:55.000Z,58.81
2017-12-02T07:20:25.319Z,58.48
2017-12-02T07:22:54.822Z,59.23
2017-12-02T07:25:25.088Z,58.97
2017-12-02T07:27:55.175Z,60.28
2017-12-02T07:30:24.744Z,60.53
2017-12-02T07:32:55.298Z,62.22
2017-12-02T07:35:25.306Z,60.09
2017-12-02T07:37:55.370Z,58.94
2017-12-02T07:40:25.048Z,59.66
2017-12-02T07:42:54.866Z,60.18
2017-12-02T07:45:25.182Z,59.87
2017-12-02T07:47:55.082Z,59.47
2017-12-02T07:50:25.822Z,59.49
2017-12-02T07:52:55.538Z,59.13
2017-12-02T07:55:25.665Z,59.01
2017-12-02T07:57:56.904Z,58.71
2017-12-02T08:00:26.819Z,58.70
2017-12-02T08:02:57.107Z,60.05
2017-12-02T08:05:27.708Z,58.82
2017-12-02T08:07:57.683Z,58.86
2017-12-02T08:10:28.189Z,58.25
2017-12-02T08:12:58.403Z,58.57
2017-12-02T08:15:28.951Z,59.26
2017-12-02T08:17:59.618Z,59.42
2017-12-02T08:20:29.827Z,59.32
2017-12-02T08:23:03.110Z,58.48
2017-12-02T08:25:33.657Z,57.91
2017-12-02T08:28:04.409Z,57.73
2017-12-02T08:30:35.198Z,58.01
2017-12-02T08:33:06.647Z,57.63
2017-12-02T08:35:36.393Z,56.98
2017-12-02T08:38:06.919Z,57.23
2017-12-02T08:40:37.166Z,57.23
2017-12-02T08:43:07.132Z,57.05
2017-12-02T08:45:36.803Z,56.81
2017-12-02T08:48:06.508Z,56.68
2017-12-02T08:50:36.783Z,56.32
2017-12-02T08:53:07.144Z,57.58
2017-12-02T08:55:36.871Z,57.43
2017-12-02T08:58:07.195Z,58.25
2017-12-02T09:00:36.794Z,59.08
2017-12-02T09:03:06.632Z,57.43
2017-12-02T09:05:47.270Z,56.93
2017-12-02T09:08:17.041Z,56.82
2017-12-02T09:10:48.524Z,56.49
2017-12-02T09:13:18.774Z,57.36
2017-12-02T09:15:49.345Z,54.56
2017-12-02T09:18:20.863Z,58.57
2017-12-02T09:20:52.163Z,57.91
2017-12-02T09:23:21.979Z,58.45
2017-12-02T09:25:52.478Z,59.04
2017-12-02T09:28:23.265Z,57.08
2017-12-02T09:30:53.600Z,55.60
2017-12-02T09:33:23.607Z,58.65
2017-12-02T09:35:53.668Z,56.42
2017-12-02T09:38:24.936Z,56.73
2017-12-02T09:40:55.812Z,57.86
2017-12-02T09:43:27.112Z,57.30
2017-12-02T09:45:57.318Z,57.80
2017-12-02T09:48:27.293Z,58.73
2017-12-02T09:50:59.101Z,58.86
2017-12-02T09:53:28.897Z,59.73
2017-12-02T09:55:59.588Z,60.65
2017-12-02T09:58:29.945Z,56.83
2017-12-02T10:00:59.968Z,54.67
2017-12-02T10:03:29.829Z,57.63
2017-12-02T10:06:01.229Z,55.45
2017-12-02T10:08:32.115Z,54.31
2017-12-02T10:11:02.697Z,53.12
2017-12-02T10:13:33.406Z,51.40
2017-12-02T10:16:03.409Z,50.80
2017-12-02T10:18:36.294Z,50.34
2017-12-02T10:21:07.168Z,53.97
2017-12-02T10:23:37.646Z,55.36
2017-12-02T10:26:07.892Z,54.12
2017-12-02T10:28:37.869Z,52.06
2017-12-02T10:31:08.497Z,51.37
2017-12-02T10:33:38.662Z,50.41
2017-12-02T10:36:08.324Z,48.08
2017-12-02T10:38:38.473Z,47.18
2017-12-02T10:41:08.803Z,47.31
2017-12-02T10:43:38.624Z,47.41
2017-12-02T10:46:09.136Z,47.87
2017-12-02T10:48:39.092Z,46.46
2017-12-02T10:51:10.094Z,44.23
2017-12-02T10:53:39.916Z,43.87
2017-12-02T10:56:11.176Z,44.31
2017-12-02T10:58:41.913Z,44.09
2017-12-02T11:01:12.575Z,43.29
2017-12-02T11:03:43.300Z,44.08
2017-12-02T11:06:13.846Z,44.01
2017-12-02T11:08:45.223Z,41.06
2017-12-02T11:11:30.424Z,44.19
2017-12-02T11:14:00.793Z,44.32
2017-12-02T11:16:30.495Z,42.54
2017-12-02T11:19:00.917Z,43.08
2017-12-02T11:21:31.068Z,42.63
2017-12-02T11:24:01.515Z,44.84
2017-12-02T11:26:31.135Z,43.57
2017-12-02T11:29:01.535Z,42.91
2017-12-02T11:31:31.287Z,42.11
2017-12-02T11:34:00.884Z,42.24
2017-12-02T11:36:30.552Z,41.15
2017-12-02T11:39:00.742Z,41.81
2017-12-02T11:41:31.449Z,41.75
2017-12-02T11:44:01.931Z,44.50
2017-12-02T11:46:32.743Z,43.01
2017-12-02T11:49:02.974Z,42.52
2017-12-02T11:51:33.735Z,43.52
2017-12-02T11:54:04.894Z,42.88
2017-12-02T11:56:34.833Z,43.36
2017-12-02T11:59:06.279Z,44.74
2017-12-02T12:01:36.690Z,44.61
2017-12-02T12:04:06.631Z,47.88
2017-12-02T12:06:36.998Z,47.03
2017-12-02T12:09:06.744Z,47.11
2017-12-02T12:11:36.645Z,46.87
2017-12-02T12:14:06.999Z,44.94
2017-12-02T12:16:37.126Z,46.67
2017-12-02T12:19:06.997Z,49.11
2017-12-02T12:21:36.823Z,49.38
2017-12-02T12:24:06.725Z,49.66
2017-12-02T12:26:37.288Z,45.72
2017-12-02T12:29:09.668Z,46.15
2017-12-02T12:31:41.525Z,46.64
2017-12-02T12:34:11.127Z,45.47
2017-12-02T12:36:42.763Z,44.35
2017-12-02T12:39:13.985Z,45.37
2017-12-02T12:41:49.571Z,46.00
2017-12-02T12:44:19.131Z,46.12
2017-12-02T12:46:48.654Z,46.11
2017-12-02T12:49:19.077Z,44.50
2017-12-02T12:51:49.253Z,43.85
2017-12-02T12:54:19.684Z,46.13
2017-12-02T12:56:50.531Z,46.40
2017-12-02T12:59:20.376Z,46.37
2017-12-02T13:01:50.887Z,46.88
2017-12-02T13:04:20.852Z,48.24
2017-12-02T13:06:50.900Z,49.38
2017-12-02T13:09:21.449Z,48.75
2017-12-02T13:11:50.957Z,50.31
2017-12-02T13:14:20.727Z,49.73
2017-12-02T13:16:51.054Z,49.54
2017-12-02T13:19:20.692Z,48.50
2017-12-02T13:21:50.641Z,48.56
2017-12-02T13:24:20.877Z,49.93
2017-12-02T13:26:50.633Z,50.32
2017-12-02T13:29:20.498Z,49.79
2017-12-02T13:31:50.850Z,48.20
2017-12-02T13:34:20.517Z,48.66
2017-12-02T13:36:50.073Z,48.82
2017-12-02T13:39:19.970Z,48.25
2017-12-02T13:41:49.639Z,48.31
2017-12-02T13:44:19.171Z,48.49
2017-12-02T13:46:48.700Z,49.54
2017-12-02T13:49:18.360Z,48.67
2017-12-02T13:51:48.222Z,48.75
2017-12-02T13:54:18.135Z,48.55
2017-12-02T13:56:50.189Z,50.16
2017-12-02T13:59:20.457Z,48.11
2017-12-02T14:01:51.418Z,48.31
2017-12-02T14:04:21.664Z,49.28
2017-12-02T14:06:51.130Z,48.53
2017-12-02T14:09:21.950Z,47.65
2017-12-02T14:11:51.276Z,48.00
2017-12-02T14:14:20.815Z,48.43
2017-12-02T14:16:52.465Z,47.61
2017-12-02T14:19:21.990Z,47.49
2017-12-02T14:21:51.882Z,48.88
2017-12-02T14:24:21.846Z,48.79
2017-12-02T14:26:51.567Z,49.41
2017-12-02T14:29:21.914Z,49.38
2017-12-02T14:31:51.690Z,48.96
2017-12-02T14:34:21.763Z,49.39
2017-12-02T14:36:51.627Z,49.84
2017-12-02T14:39:21.292Z,50.28
2017-12-02T14:41:51.734Z,49.26
2017-12-02T14:44:22.974Z,49.80
2017-12-02T14:46:52.915Z,50.26
2017-12-02T14:49:22.598Z,49.77
2017-12-02T14:51:54.605Z,49.63
2017-12-02T14:54:24.663Z,49.80
2017-12-02T14:56:55.007Z,50.18
2017-12-02T14:59:25.984Z,49.75
2017-12-02T15:01:55.728Z,49.75
2017-12-02T15:04:26.606Z,49.77
2017-12-02T15:06:59.041Z,49.71
2017-12-02T15:09:29.636Z,51.23
2017-12-02T15:11:59.524Z,51.49
2017-12-02T15:14:30.238Z,50.30
2017-12-02T15:17:01.549Z,50.44
2017-12-02T15:19:31.607Z,51.70
2017-12-02T15:22:01.365Z,50.75
2017-12-02T15:24:31.674Z,51.43
2017-12-02T15:27:02.852Z,52.53
2017-12-02T15:29:33.858Z,51.87
2017-12-02T15:32:03.458Z,52.75
2017-12-02T15:34:33.006Z,53.42
2017-12-02T15:37:02.770Z,52.83
2017-12-02T15:39:33.156Z,52.00
2017-12-02T15:42:02.979Z,52.88
2017-12-02T15:44:33.090Z,53.03
2017-12-02T15:47:03.073Z,52.27
2017-12-02T15:49:32.974Z,52.48
2017-12-02T15:52:03.087Z,52.29
2017-12-02T15:54:33.214Z,52.32
2017-12-02T15:57:03.735Z,52.54
2017-12-02T15:59:33.436Z,52.79
2017-12-02T16:02:04.043Z,54.68
2017-12-02T16:04:33.664Z,53.12
2017-12-02T16:07:03.886Z,52.94
2017-12-02T16:09:34.531Z,54.19
2017-12-02T16:12:04.489Z,54.17
2017-12-02T16:14:34.842Z,54.50
2017-12-02T16:17:04.680Z,53.78
2017-12-02T16:19:34.086Z,53.89
2017-12-02T16:22:03.781Z,53.28
2017-12-02T16:24:34.106Z,53.32
2017-12-02T16:27:04.699Z,53.02
2017-12-02T16:29:34.259Z,53.04
2017-12-02T16:32:04.582Z,53.48
2017-12-02T16:34:34.447Z,53.00
2017-12-02T16:37:04.342Z,53.28
2017-12-02T16:39:35.151Z,52.73
2017-12-02T16:42:05.170Z,52.42
2017-12-02T16:44:34.839Z,52.94
2017-12-02T16:47:04.486Z,54.21
2017-12-02T16:49:34.127Z,53.43
2017-12-02T16:52:03.770Z,53.90
2017-12-02T16:54:35.537Z,53.37
2017-12-02T16:57:05.868Z,54.06
2017-12-02T16:59:35.717Z,52.68
2017-12-02T17:02:06.717Z,53.65
2017-12-02T17:04:36.373Z,54.03
2017-12-02T17:07:06.306Z,53.55
2017-12-02T17:09:35.828Z,53.51
2017-12-02T17:12:05.463Z,54.50
2017-12-02T17:14:35.227Z,55.28
2017-12-02T17:17:05.156Z,54.33
2017-12-02T17:19:36.156Z,53.95
2017-12-02T17:22:07.462Z,53.46
2017-12-02T17:24:37.697Z,54.25
2017-12-02T17:27:08.933Z,54.49
2017-12-02T17:29:38.920Z,54.70
2017-12-02T17:32:08.853Z,54.19
2017-12-02T17:34:39.015Z,55.79
2017-12-02T17:37:09.386Z,54.41
2017-12-02T17:39:39.246Z,55.28
2017-12-02T17:42:10.753Z,55.93
2017-12-02T17:44:42.000Z,54.74
2017-12-02T17:47:12.002Z,55.16
2017-12-02T17:49:42.155Z,55.48
2017-12-02T17:52:12.073Z,56.99
2017-12-02T17:54:42.180Z,57.27
2017-12-02T17:57:11.912Z,56.62
2017-12-02T17:59:41.420Z,56.49
2017-12-02T18:02:11.416Z,56.64
2017-12-02T18:04:41.933Z,56.61
2017-12-02T18:07:12.088Z,56.23
2017-12-02T18:09:41.989Z,58.34
2017-12-02T18:12:12.256Z,59.98
2017-12-02T18:14:42.657Z,62.78
2017-12-02T18:17:12.899Z,61.11
2017-12-02T18:19:43.251Z,59.23
2017-12-02T18:22:12.915Z,60.39
2017-12-02T18:24:43.026Z,62.14
2017-12-02T18:27:13.792Z,60.88
2017-12-02T18:29:43.584Z,61.39
2017-12-02T18:32:13.416Z,60.37
2017-12-02T18:34:43.000Z,61.38
2017-12-02T18:37:13.806Z,63.24
2017-12-02T18:39:43.533Z,60.11
2017-12-02T18:42:14.598Z,58.35
2017-12-02T18:44:44.254Z,57.07
2017-12-02T18:47:16.414Z,56.95
2017-12-02T18:49:46.288Z,57.25
2017-12-02T18:52:17.680Z,57.60
2017-12-02T18:54:47.204Z,57.62
2017-12-02T18:57:20.568Z,57.59
2017-12-02T18:59:52.220Z,57.12
2017-12-02T19:02:23.066Z,56.39
2017-12-02T19:04:53.518Z,57.14
2017-12-02T19:07:23.992Z,57.49
2017-12-02T19:09:53.396Z,58.39
2017-12-02T19:12:23.747Z,57.84
2017-12-02T19:14:53.885Z,61.21
2017-12-02T19:17:24.772Z,61.20
2017-12-02T19:19:54.849Z,60.14
2017-12-02T19:22:25.212Z,58.36
2017-12-02T19:24:55.802Z,63.27
2017-12-02T19:27:26.138Z,67.36
2017-12-02T19:29:56.650Z,65.55
2017-12-02T19:32:27.229Z,60.90
2017-12-02T19:34:57.589Z,61.97
2017-12-02T19:37:27.285Z,60.41
2017-12-02T19:39:57.012Z,61.12
2017-12-02T19:42:26.508Z,59.69
2017-12-02T19:44:56.294Z,58.40
2017-12-02T19:47:28.543Z,57.51
2017-12-02T19:49:58.281Z,57.21
2017-12-02T19:52:28.852Z,56.63
2017-12-02T19:54:58.481Z,58.73
2017-12-02T19:57:30.397Z,57.37
2017-12-02T20:00:00.578Z,56.67
2017-12-02T20:02:31.278Z,57.07
2017-12-02T20:05:01.426Z,57.40
2017-12-02T20:07:32.207Z,57.65
2017-12-02T20:10:02.533Z,57.85
2017-12-02T20:12:33.325Z,57.93
2017-12-02T20:15:03.051Z,57.71
2017-12-02T20:17:35.086Z,56.70
2017-12-02T20:20:04.964Z,55.85
2017-12-02T20:22:34.639Z,55.58
2017-12-02T20:25:04.757Z,55.30
2017-12-02T20:27:36.519Z,55.71
2017-12-02T20:30:06.801Z,55.41
2017-12-02T20:32:37.801Z,56.20
2017-12-02T20:35:08.153Z,56.33
2017-12-02T20:37:38.663Z,56.52
2017-12-02T20:40:08.769Z,56.80
2017-12-02T20:42:38.438Z,56.82
2017-12-02T20:45:08.637Z,57.07
2017-12-02T20:47:40.922Z,56.73
2017-12-02T20:50:10.544Z,56.47
2017-12-02T20:52:40.880Z,57.54
2017-12-02T20:55:10.399Z,57.64
2017-12-02T20:57:41.125Z,57.40
2017-12-02T21:00:10.556Z,57.04
2017-12-02T21:02:41.521Z,58.53
2017-12-02T21:05:12.253Z,58.75
2017-12-02T21:07:43.393Z,58.67
2017-12-02T21:10:12.815Z,57.54
2017-12-02T21:12:44.579Z,56.90
2017-12-02T21:15:16.181Z,56.86
2017-12-02T21:17:46.041Z,56.73
2017-12-02T21:20:15.882Z,56.45
2017-12-02T21:22:46.530Z,56.41
2017-12-02T21:25:16.108Z,56.31
2017-12-02T21:27:47.845Z,58.46
2017-12-02T21:30:17.448Z,57.84
2017-12-02T21:32:48.668Z,57.52
2017-12-02T21:35:18.164Z,57.69
2017-12-02T21:37:49.639Z,56.81
2017-12-02T21:40:19.210Z,57.60
2017-12-02T21:42:50.539Z,57.34
2017-12-02T21:45:20.174Z,57.08
2017-12-02T21:47:51.236Z,57.08
2017-12-02T21:50:21.013Z,56.35
2017-12-02T21:52:52.641Z,58.05
2017-12-02T21:55:23.510Z,57.99
2017-12-02T21:57:54.399Z,57.45
2017-12-02T22:00:23.851Z,57.13
2017-12-02T22:02:55.274Z,56.99
2017-12-02T22:05:25.986Z,57.09
2017-12-02T22:07:56.489Z,56.35
2017-12-02T22:10:26.883Z,55.50
2017-12-02T22:12:56.843Z,56.31
2017-12-02T22:15:27.202Z,57.20
2017-12-02T22:17:58.209Z,58.59
2017-12-02T22:20:28.920Z,56.98
2017-12-02T22:22:58.678Z,56.26
2017-12-02T22:25:28.654Z,56.21
2017-12-02T22:28:00.720Z,55.98
2017-12-02T22:30:30.385Z,55.46
2017-12-02T22:33:01.224Z,55.32
2017-12-02T22:35:30.887Z,55.79
2017-12-02T22:38:02.425Z,58.12
2017-12-02T22:40:32.733Z,57.18
2017-12-02T22:43:03.218Z,57.83
2017-12-02T22:45:32.814Z,56.50
2017-12-02T22:48:03.796Z,57.46
2017-12-02T22:50:33.695Z,56.89
2017-12-02T22:53:05.646Z,56.34
2017-12-02T22:55:35.284Z,55.88
2017-12-02T22:58:05.688Z,55.89
2017-12-02T23:00:40.102Z,55.54
2017-12-02T23:03:10.431Z,55.76
2017-12-02T23:05:40.523Z,55.55
2017-12-02T23:08:10.452Z,57.42
2017-12-02T23:10:43.081Z,57.56
2017-12-02T23:13:13.917Z,56.11
2017-12-02T23:15:44.331Z,56.21
2017-12-02T23:18:15.462Z,55.97
2017-12-02T23:20:46.764Z,56.76
2017-12-02T23:23:18.611Z,60.68
2017-12-02T23:25:48.794Z,60.21
2017-12-02T23:28:20.029Z,58.19
2017-12-02T23:30:50.520Z,57.87
2017-12-02T23:33:28.546Z,57.97
2017-12-02T23:35:59.493Z,57.90
2017-12-02T23:38:29.706Z,57.44
2017-12-02T23:40:59.709Z,57.21
2017-12-02T23:43:32.479Z,58.08
2017-12-02T23:46:03.736Z,57.04
2017-12-02T23:48:39.692Z,56.49
2017-12-02T23:51:09.559Z,55.81
2017-12-02T23:53:41.677Z,56.37
2017-12-02T23:56:12.648Z,56.66
2017-12-02T23:58:44.986Z,57.00
